createdAt,value
2023-04-04T00:02:16.876Z,3.33
2023-04-04T00:05:02.303Z,3.65
2023-04-04T00:07:47.820Z,3.20
2023-04-04T00:10:32.816Z,3.10
2023-04-04T00:13:18.053Z,2.95
2023-04-04T00:16:03.717Z,3.30
2023-04-04T00:18:48.951Z,3.38
2023-04-04T00:21:34.378Z,3.38
2023-04-04T00:24:19.802Z,3.15
2023-04-04T00:27:04.841Z,4.13
2023-04-04T00:29:50.089Z,3.75
2023-04-04T00:32:35.184Z,3.30
2023-04-04T00:35:20.623Z,3.50
2023-04-04T00:38:05.716Z,4.05
2023-04-04T00:40:51.600Z,3.47
2023-04-04T00:43:37.778Z,3.45
2023-04-04T00:46:24.965Z,2.60
2023-04-04T00:49:09.946Z,3.20
2023-04-04T00:51:55.368Z,2.67
2023-04-04T00:54:40.836Z,2.20
2023-04-04T00:57:28.739Z,2.70
2023-04-04T01:00:15.366Z,2.33
2023-04-04T01:03:00.964Z,2.47
2023-04-04T01:05:46.956Z,2.83
2023-04-04T01:08:33.125Z,2.30
2023-04-04T01:11:18.343Z,2.58
2023-04-04T01:14:03.653Z,2.67
2023-04-04T01:16:51.108Z,2.78
2023-04-04T01:19:49.460Z,2.70
2023-04-04T01:22:35.963Z,2.20
2023-04-04T01:25:30.197Z,2.72
2023-04-04T01:28:15.718Z,2.92
2023-04-04T01:31:02.988Z,2.40
2023-04-04T01:33:58.900Z,2.92
2023-04-04T01:37:17.173Z,3.22
2023-04-04T01:40:14.979Z,2.92
2023-04-04T01:43:00.354Z,3.20
2023-04-04T01:45:46.265Z,3.20
2023-04-04T01:48:31.499Z,3.00
2023-04-04T01:51:17.182Z,2.92
2023-04-04T01:54:02.033Z,2.72
2023-04-04T01:56:47.214Z,2.65
2023-04-04T01:59:32.574Z,2.65
2023-04-04T02:02:17.706Z,2.33
2023-04-04T02:05:04.222Z,2.80
2023-04-04T02:07:52.291Z,2.58
2023-04-04T02:10:37.323Z,2.17
2023-04-04T02:13:22.083Z,2.55
2023-04-04T02:16:07.245Z,2.47
2023-04-04T02:18:53.012Z,2.70
2023-04-04T02:21:37.911Z,2.38
2023-04-04T02:24:23.009Z,2.50
2023-04-04T02:27:08.105Z,2.53
2023-04-04T02:29:53.919Z,2.30
2023-04-04T02:32:40.020Z,2.40
2023-04-04T02:35:25.796Z,2.55
2023-04-04T02:38:10.867Z,2.53
2023-04-04T02:40:55.928Z,2.55
2023-04-04T02:43:41.168Z,2.60
2023-04-04T02:46:26.122Z,2.50
2023-04-04T02:49:12.595Z,2.10
2023-04-04T02:51:58.114Z,3.10
2023-04-04T02:54:43.436Z,2.67
2023-04-04T02:57:28.737Z,2.63
2023-04-04T03:00:13.822Z,2.42
2023-04-04T03:02:59.428Z,2.22
2023-04-04T03:05:44.987Z,2.35
2023-04-04T03:08:30.548Z,2.70
2023-04-04T03:11:21.240Z,2.30
2023-04-04T03:14:07.558Z,2.55
2023-04-04T03:16:53.693Z,2.50
2023-04-04T03:19:38.805Z,2.50
2023-04-04T03:22:23.993Z,2.25
2023-04-04T03:25:09.741Z,2.17
2023-04-04T03:27:54.990Z,2.47
2023-04-04T03:30:40.436Z,2.28
2023-04-04T03:33:25.764Z,2.38
2023-04-04T03:36:12.774Z,3.13
2023-04-04T03:38:57.966Z,2.60
2023-04-04T03:41:43.222Z,2.67
2023-04-04T03:44:28.205Z,2.75
2023-04-04T03:47:16.569Z,2.70
2023-04-04T03:50:02.415Z,2.38
2023-04-04T03:52:47.736Z,2.75
2023-04-04T03:55:33.975Z,2.72
2023-04-04T03:58:19.682Z,2.70
2023-04-04T04:01:05.042Z,3.03
2023-04-04T04:03:50.454Z,2.85
2023-04-04T04:06:35.879Z,2.80
2023-04-04T04:09:21.325Z,2.70
2023-04-04T04:12:06.892Z,3.00
2023-04-04T04:14:52.057Z,2.50
2023-04-04T04:17:41.119Z,2.70
2023-04-04T04:20:26.613Z,2.40
2023-04-04T04:23:11.772Z,2.72
2023-04-04T04:25:56.893Z,2.25
2023-04-04T04:28:42.159Z,2.90
2023-04-04T04:31:27.765Z,2.97
2023-04-04T04:34:13.689Z,2.70
2023-04-04T04:36:59.369Z,2.53
2023-04-04T04:39:44.291Z,2.65
2023-04-04T04:42:29.692Z,2.72
2023-04-04T04:45:14.830Z,2.90
2023-04-04T04:48:00.115Z,2.53
2023-04-04T04:50:46.087Z,2.67
2023-04-04T04:53:31.436Z,2.75
2023-04-04T04:56:16.681Z,2.70
2023-04-04T04:59:01.737Z,2.63
2023-04-04T05:01:46.957Z,2.20
2023-04-04T05:04:32.445Z,2.45
2023-04-04T05:07:17.590Z,2.63
2023-04-04T05:10:03.157Z,3.45
2023-04-04T05:12:48.254Z,2.40
2023-04-04T05:15:33.123Z,2.80
2023-04-04T05:18:18.311Z,2.78
2023-04-04T05:21:03.882Z,2.80
2023-04-04T05:23:48.813Z,2.78
2023-04-04T05:26:35.048Z,2.53
2023-04-04T05:29:20.315Z,3.03
2023-04-04T05:32:05.725Z,3.00
2023-04-04T05:34:50.855Z,2.63
2023-04-04T05:37:39.391Z,2.58
2023-04-04T05:40:24.633Z,2.55
2023-04-04T05:43:09.836Z,3.08
2023-04-04T05:45:55.552Z,2.72
2023-04-04T05:48:41.075Z,2.70
2023-04-04T05:51:26.326Z,2.53
2023-04-04T05:54:11.424Z,2.90
2023-04-04T05:56:56.496Z,2.83
2023-04-04T05:59:41.677Z,3.33
2023-04-04T06:02:27.034Z,3.25
2023-04-04T06:05:12.368Z,4.50
2023-04-04T06:07:58.162Z,6.75
2023-04-04T06:10:43.607Z,4.18
2023-04-04T06:13:28.824Z,4.10
2023-04-04T06:16:14.142Z,3.88
2023-04-04T06:18:59.246Z,4.22
2023-04-04T06:21:44.584Z,3.72
2023-04-04T06:24:29.804Z,3.38
2023-04-04T06:27:14.949Z,5.85
2023-04-04T06:30:00.297Z,4.63
2023-04-04T06:32:45.526Z,4.85
2023-04-04T06:35:30.980Z,3.30
2023-04-04T06:38:16.030Z,4.00
2023-04-04T06:41:01.312Z,5.85
2023-04-04T06:43:49.390Z,4.30
2023-04-04T06:46:37.408Z,5.25
2023-04-04T06:49:22.223Z,5.55
2023-04-04T06:52:07.154Z,5.53
2023-04-04T06:54:52.666Z,5.93
2023-04-04T06:57:38.537Z,5.53
2023-04-04T07:00:23.583Z,4.75
2023-04-04T07:03:08.841Z,4.40
2023-04-04T07:05:55.436Z,4.13
2023-04-04T07:08:40.777Z,4.53
2023-04-04T07:11:27.192Z,3.55
2023-04-04T07:14:12.764Z,3.65
2023-04-04T07:16:58.284Z,3.70
2023-04-04T07:19:43.580Z,4.07
2023-04-04T07:22:28.371Z,3.50
2023-04-04T07:25:13.561Z,3.88
2023-04-04T07:28:09.515Z,3.60
2023-04-04T07:31:01.823Z,3.65
2023-04-04T07:33:46.772Z,4.20
2023-04-04T07:36:31.875Z,4.25
2023-04-04T07:39:17.116Z,4.35
2023-04-04T07:42:02.321Z,4.43
2023-04-04T07:44:47.268Z,4.95
2023-04-04T07:47:32.534Z,5.63
2023-04-04T07:50:17.581Z,5.30
2023-04-04T07:53:02.841Z,3.58
2023-04-04T07:55:48.370Z,5.13
2023-04-04T07:58:34.278Z,5.13
2023-04-04T08:01:19.368Z,5.95
2023-04-04T08:04:05.722Z,5.63
2023-04-04T08:06:51.652Z,6.30
2023-04-04T08:09:36.794Z,5.65
2023-04-04T08:12:22.076Z,4.72
2023-04-04T08:15:07.863Z,5.18
2023-04-04T08:17:53.472Z,5.20
2023-04-04T08:20:39.021Z,4.55
2023-04-04T08:23:24.571Z,4.43
2023-04-04T08:26:09.814Z,4.53
2023-04-04T08:28:55.343Z,4.63
2023-04-04T08:31:41.330Z,4.45
2023-04-04T08:34:26.244Z,5.13
2023-04-04T08:37:11.434Z,5.10
2023-04-04T08:39:56.765Z,4.47
2023-04-04T08:42:44.348Z,4.50
2023-04-04T08:45:31.512Z,4.72
2023-04-04T08:48:17.966Z,4.82
2023-04-04T08:51:04.709Z,5.28
2023-04-04T08:53:51.283Z,4.25
2023-04-04T08:56:36.508Z,4.95
2023-04-04T08:59:22.112Z,4.70
2023-04-04T09:02:11.057Z,4.97
2023-04-04T09:05:05.424Z,4.85
2023-04-04T09:07:53.155Z,4.80
2023-04-04T09:10:40.041Z,4.82
2023-04-04T09:13:25.410Z,5.30
2023-04-04T09:16:10.510Z,5.40
2023-04-04T09:18:55.754Z,4.78
2023-04-04T09:21:47.125Z,4.47
2023-04-04T09:24:43.265Z,4.95
2023-04-04T09:27:28.404Z,4.57
2023-04-04T09:30:13.963Z,4.20
2023-04-04T09:33:05.006Z,5.03
2023-04-04T09:35:54.484Z,4.32
2023-04-04T09:38:43.285Z,4.15
2023-04-04T09:41:29.430Z,3.50
2023-04-04T09:44:16.587Z,3.63
2023-04-04T09:50:22.986Z,3.85
2023-04-04T09:53:08.651Z,5.60
2023-04-04T09:55:55.627Z,4.63
2023-04-04T09:58:52.483Z,4.22
2023-04-04T10:01:46.140Z,3.70
2023-04-04T10:04:32.332Z,3.25
2023-04-04T10:07:18.690Z,4.32
2023-04-04T10:10:09.061Z,3.60
2023-04-04T10:12:57.882Z,3.50
2023-04-04T10:15:44.720Z,2.97
2023-04-04T10:18:32.401Z,3.13
2023-04-04T10:21:17.766Z,2.83
2023-04-04T10:24:09.272Z,3.10
2023-04-04T10:26:55.427Z,2.85
2023-04-04T10:29:40.559Z,2.60
2023-04-04T10:32:53.840Z,2.63
2023-04-04T10:35:43.935Z,2.58
2023-04-04T10:41:17.933Z,2.70
2023-04-04T10:44:17.531Z,3.35
2023-04-04T10:47:14.652Z,3.20
2023-04-04T10:50:00.679Z,2.90
2023-04-04T10:52:46.408Z,2.95
2023-04-04T10:55:33.214Z,3.28
2023-04-04T10:58:18.538Z,2.85
2023-04-04T11:01:03.909Z,3.20
2023-04-04T11:04:20.734Z,2.88
2023-04-04T11:07:10.231Z,2.88
2023-04-04T11:09:56.733Z,3.63
2023-04-04T11:12:46.112Z,3.47
2023-04-04T11:15:58.767Z,3.45
2023-04-04T11:18:45.364Z,3.47
2023-04-04T11:21:32.661Z,3.63
2023-04-04T11:24:17.745Z,2.90
2023-04-04T11:27:06.922Z,2.70
2023-04-04T11:29:55.380Z,3.00
2023-04-04T11:32:59.913Z,3.05
2023-04-04T11:35:50.255Z,3.78
2023-04-04T11:38:35.980Z,3.63
2023-04-04T11:41:21.588Z,2.88
2023-04-04T11:44:10.322Z,3.13
2023-04-04T11:47:04.349Z,2.80
2023-04-04T11:49:51.732Z,3.28
2023-04-04T11:52:38.311Z,3.10
2023-04-04T11:55:23.779Z,3.00
2023-04-04T11:58:12.812Z,3.40
2023-04-04T12:00:58.993Z,3.15
2023-04-04T12:03:44.330Z,3.20
2023-04-04T12:06:32.744Z,3.17
2023-04-04T12:09:20.249Z,2.60
2023-04-04T12:12:07.581Z,3.13
2023-04-04T12:15:00.214Z,3.15
2023-04-04T12:17:51.856Z,3.13
2023-04-04T12:20:41.507Z,3.08
2023-04-04T12:23:28.505Z,2.88
2023-04-04T12:26:14.032Z,2.88
2023-04-04T12:29:00.782Z,3.25
2023-04-04T12:31:47.228Z,3.45
2023-04-04T12:34:34.601Z,3.35
2023-04-04T12:37:22.314Z,3.25
2023-04-04T12:40:07.631Z,3.42
2023-04-04T12:42:53.050Z,3.22
2023-04-04T12:45:42.278Z,3.22
2023-04-04T12:48:29.669Z,3.70
2023-04-04T12:51:15.950Z,2.90
2023-04-04T12:54:01.369Z,3.17
2023-04-04T12:56:46.729Z,3.20
2023-04-04T12:59:34.000Z,3.50
2023-04-04T13:02:22.116Z,3.10
2023-04-04T13:05:10.136Z,2.95
2023-04-04T13:08:06.750Z,3.25
2023-04-04T13:10:59.678Z,3.47
2023-04-04T13:16:37.060Z,2.80
2023-04-04T13:19:23.078Z,3.20
2023-04-04T13:22:09.526Z,3.13
2023-04-04T13:24:54.354Z,3.50
2023-04-04T13:27:39.429Z,3.05
2023-04-04T13:30:24.704Z,3.03
2023-04-04T13:33:09.984Z,3.28
2023-04-04T13:35:55.263Z,2.90
2023-04-04T13:38:40.416Z,3.42
2023-04-04T13:41:25.869Z,3.20
2023-04-04T13:44:10.854Z,3.63
2023-04-04T13:46:56.045Z,2.97
2023-04-04T13:49:41.173Z,3.33
2023-04-04T13:52:26.375Z,3.20
2023-04-04T13:55:11.752Z,2.92
2023-04-04T13:57:57.216Z,3.13
2023-04-04T14:00:42.909Z,2.95
2023-04-04T14:03:28.071Z,3.25
2023-04-04T14:06:13.416Z,3.50
2023-04-04T14:08:58.682Z,3.20
2023-04-04T14:11:43.984Z,3.30
2023-04-04T14:14:29.351Z,3.10
2023-04-04T14:17:14.502Z,3.80
2023-04-04T14:19:59.908Z,3.72
2023-04-04T14:22:45.053Z,3.50
2023-04-04T14:25:30.060Z,3.72
2023-04-04T14:28:14.985Z,3.22
2023-04-04T14:31:00.245Z,3.45
2023-04-04T14:33:45.641Z,3.45
2023-04-04T14:36:31.696Z,3.22
2023-04-04T14:39:17.072Z,3.25
2023-04-04T14:42:01.927Z,3.03
2023-04-04T14:44:47.112Z,3.35
2023-04-04T14:47:32.318Z,3.13
2023-04-04T14:50:17.708Z,3.10
2023-04-04T14:53:03.135Z,3.22
2023-04-04T14:55:48.330Z,3.10
2023-04-04T14:58:33.521Z,2.75
2023-04-04T15:01:21.371Z,3.10
2023-04-04T15:04:07.333Z,3.20
2023-04-04T15:06:53.542Z,3.10
2023-04-04T15:09:38.641Z,2.70
2023-04-04T15:12:23.586Z,2.85
2023-04-04T15:15:09.133Z,3.00
2023-04-04T15:17:54.562Z,3.00
2023-04-04T15:20:40.473Z,3.25
2023-04-04T15:23:25.546Z,3.13
2023-04-04T15:26:10.693Z,3.03
2023-04-04T15:28:55.749Z,3.00
2023-04-04T15:31:41.066Z,3.00
2023-04-04T15:34:26.373Z,3.10
2023-04-04T15:37:12.230Z,3.03
2023-04-04T15:39:57.686Z,2.80
2023-04-04T15:42:42.874Z,2.70
2023-04-04T15:45:28.047Z,2.65
2023-04-04T15:48:13.353Z,2.97
2023-04-04T15:51:02.507Z,3.03
2023-04-04T15:53:47.988Z,3.20
2023-04-04T15:56:33.252Z,3.33
2023-04-04T15:59:18.201Z,3.08
2023-04-04T16:02:06.372Z,2.80
2023-04-04T16:04:51.692Z,2.90
2023-04-04T16:07:36.981Z,3.28
2023-04-04T16:10:22.112Z,2.50
2023-04-04T16:13:07.310Z,2.83
2023-04-04T16:15:52.828Z,3.50
2023-04-04T16:18:38.000Z,3.30
2023-04-04T16:21:23.324Z,3.67
2023-04-04T16:24:08.945Z,3.40
2023-04-04T16:26:54.119Z,3.30
2023-04-04T16:29:39.078Z,3.22
2023-04-04T16:32:24.145Z,3.47
2023-04-04T16:35:09.830Z,2.97
2023-04-04T16:37:55.449Z,4.63
2023-04-04T16:40:40.944Z,4.00
2023-04-04T16:43:27.028Z,3.72
2023-04-04T16:46:11.933Z,3.67
2023-04-04T16:48:57.028Z,3.80
2023-04-04T16:51:41.952Z,3.42
2023-04-04T16:54:27.285Z,3.72
2023-04-04T16:57:12.368Z,5.30
2023-04-04T16:59:57.512Z,6.32
2023-04-04T17:02:45.817Z,3.75
2023-04-04T17:05:31.202Z,3.47
2023-04-04T17:08:16.488Z,4.55
2023-04-04T17:11:01.795Z,6.80
2023-04-04T17:13:47.546Z,13.75
2023-04-04T17:16:32.446Z,15.27
2023-04-04T17:19:17.530Z,10.68
2023-04-04T17:22:03.278Z,23.83
2023-04-04T17:24:48.743Z,6.50
2023-04-04T17:27:33.760Z,8.07
2023-04-04T17:30:18.787Z,14.45
2023-04-04T17:33:04.291Z,10.38
2023-04-04T17:35:49.909Z,26.60
2023-04-04T17:38:36.044Z,14.75
2023-04-04T17:41:21.074Z,6.82
2023-04-04T17:44:06.321Z,4.43
2023-04-04T17:46:51.688Z,3.85
2023-04-04T17:49:37.169Z,3.30
2023-04-04T17:52:22.013Z,3.30
2023-04-04T17:55:08.716Z,3.60
2023-04-04T17:57:53.956Z,3.63
2023-04-04T18:00:39.568Z,4.10
2023-04-04T18:03:25.219Z,3.38
2023-04-04T18:06:10.615Z,3.50
2023-04-04T18:08:57.738Z,3.40
2023-04-04T18:11:42.995Z,3.00
2023-04-04T18:14:27.863Z,3.78
2023-04-04T18:17:13.230Z,3.38
2023-04-04T18:19:59.013Z,3.08
2023-04-04T18:22:45.746Z,3.80
2023-04-04T18:25:33.359Z,3.90
2023-04-04T18:28:18.322Z,3.92
2023-04-04T18:31:03.685Z,3.47
2023-04-04T18:33:49.894Z,3.97
2023-04-04T18:36:36.894Z,4.10
2023-04-04T18:39:22.142Z,3.88
2023-04-04T18:42:08.617Z,4.40
2023-04-04T18:44:53.882Z,4.50
2023-04-04T18:47:40.306Z,3.45
2023-04-04T18:50:26.356Z,4.13
2023-04-04T18:53:11.543Z,3.85
2023-04-04T18:55:57.892Z,4.13
2023-04-04T18:58:43.072Z,4.38
2023-04-04T19:01:28.782Z,5.05
2023-04-04T19:04:19.822Z,4.43
2023-04-04T19:07:08.885Z,4.57
2023-04-04T19:09:55.458Z,4.70
2023-04-04T19:12:40.408Z,4.45
2023-04-04T19:15:25.581Z,3.85
2023-04-04T19:18:11.834Z,3.88
2023-04-04T19:20:58.423Z,4.95
2023-04-04T19:23:43.521Z,4.57
2023-04-04T19:26:28.770Z,5.00
2023-04-04T19:29:21.062Z,4.70
2023-04-04T19:32:19.500Z,5.10
2023-04-04T19:35:20.539Z,4.57
2023-04-04T19:38:07.547Z,5.68
2023-04-04T19:40:59.193Z,6.03
2023-04-04T19:43:46.175Z,6.05
2023-04-04T19:46:33.178Z,4.97
2023-04-04T19:49:19.278Z,5.38
2023-04-04T19:52:05.689Z,5.30
2023-04-04T19:54:50.941Z,4.85
2023-04-04T19:57:37.659Z,4.90
2023-04-04T20:00:24.072Z,4.22
2023-04-04T20:03:24.082Z,4.60
2023-04-04T20:08:57.696Z,4.50
2023-04-04T20:11:42.933Z,4.57
2023-04-04T20:14:28.651Z,4.70
2023-04-04T20:17:17.839Z,4.28
2023-04-04T20:20:08.994Z,4.60
2023-04-04T20:22:54.081Z,5.43
2023-04-04T20:25:41.823Z,4.30
2023-04-04T20:28:28.567Z,4.78
2023-04-04T20:31:17.942Z,4.40
2023-04-04T20:36:51.044Z,4.57
2023-04-04T20:39:41.316Z,4.93
2023-04-04T20:45:28.124Z,5.15
2023-04-04T20:48:33.885Z,4.63
2023-04-04T20:51:23.979Z,4.55
2023-04-04T20:54:09.611Z,5.03
2023-04-04T20:56:56.694Z,4.10
2023-04-04T20:59:43.585Z,5.43
2023-04-04T21:02:28.995Z,5.45
2023-04-04T21:05:27.770Z,5.45
2023-04-04T21:08:16.056Z,6.43
2023-04-04T21:11:01.328Z,7.43
2023-04-04T21:13:47.298Z,5.70
2023-04-04T21:16:32.424Z,9.18
2023-04-04T21:19:23.415Z,11.95
2023-04-04T21:22:09.036Z,9.80
2023-04-04T21:24:54.127Z,6.53
2023-04-04T21:27:39.358Z,6.55
2023-04-04T21:30:44.598Z,5.63
2023-04-04T21:33:29.643Z,5.28
2023-04-04T21:36:28.269Z,5.93
2023-04-04T21:39:25.592Z,6.35
2023-04-04T21:42:10.535Z,5.43
2023-04-04T21:44:55.899Z,5.57
2023-04-04T21:47:41.210Z,5.75
2023-04-04T21:50:26.275Z,6.10
2023-04-04T21:53:11.536Z,6.90
2023-04-04T21:55:57.088Z,7.47
2023-04-04T21:58:42.626Z,9.95
2023-04-04T22:01:28.195Z,15.55
2023-04-04T22:04:13.302Z,20.88
2023-04-04T22:06:58.417Z,17.38
2023-04-04T22:09:43.745Z,16.83
2023-04-04T22:12:28.584Z,9.45
2023-04-04T22:15:13.577Z,9.70
2023-04-04T22:18:05.117Z,7.45
2023-04-04T22:20:54.831Z,8.02
2023-04-04T22:23:40.331Z,7.13
2023-04-04T22:26:34.590Z,5.40
2023-04-04T22:29:20.028Z,4.97
2023-04-04T22:32:05.505Z,4.93
2023-04-04T22:34:50.757Z,5.40
2023-04-04T22:37:36.042Z,5.20
2023-04-04T22:40:21.288Z,4.63
2023-04-04T22:43:06.268Z,4.75
2023-04-04T22:45:51.851Z,5.03
2023-04-04T22:48:41.067Z,5.38
2023-04-04T22:51:26.203Z,6.13
2023-04-04T22:54:15.782Z,5.40
2023-04-04T22:57:01.298Z,5.55
2023-04-04T22:59:46.524Z,5.32
2023-04-04T23:02:31.753Z,5.30
2023-04-04T23:05:18.564Z,4.80
2023-04-04T23:08:03.945Z,5.63
2023-04-04T23:10:48.921Z,5.10
2023-04-04T23:13:34.786Z,5.90
2023-04-04T23:16:23.598Z,5.60
2023-04-04T23:19:09.007Z,5.35
2023-04-04T23:21:54.308Z,5.53
2023-04-04T23:24:40.290Z,5.78
2023-04-04T23:27:25.564Z,5.60
2023-04-04T23:30:11.704Z,6.00
2023-04-04T23:32:56.712Z,5.78
2023-04-04T23:35:42.003Z,5.57
2023-04-04T23:38:27.054Z,6.20
2023-04-04T23:41:12.636Z,5.38
2023-04-04T23:43:57.734Z,4.95
2023-04-04T23:46:42.991Z,5.13
2023-04-04T23:49:28.167Z,6.18
2023-04-04T23:52:13.059Z,6.10
2023-04-04T23:54:58.022Z,5.50
2023-04-04T23:57:43.828Z,5.63
